Messwerte Vucherens

Temperatur

Temperatur
°C
1594224000 18.00 18.00 24.1
1594227600 19.00 19.00 23.4
1594231200 20.00 20.00 22.9
1594234800 21.00 21.00 20.9
1594238400 22.00 22.00 19.2
1594242000 23.00 23.00 17.4
1594245600 0.00 0.00 16.4
1594249200 1.00 1.00 16.1
1594252800 2.00 2.00 15.7
1594256400 3.00 3.00 14.8
1594260000 4.00 4.00 14.1
1594263600 5.00 5.00 13.7
1594267200 6.00 6.00 13.8
1594270800 7.00 7.00 17.2
1594274400 8.00 8.00 18.7
1594278000 9.00 9.00 21.3
1594281600 10.00 10.00 23.3
1594285200 11.00 11.00 24.4
1594288800 12.00 12.00 25.6
1594292400 13.00 13.00 27.3
1594296000 14.00 14.00 26.3
1594299600 15.00 15.00 28.0
1594303200 16.00 16.00 28.9
1594306800 17.00 17.00 30.2

Wir danken unserem Partner:

Aktuellste Messwerte

Temperatur
30.2 °C
Feuchtigkeit
30 %
Niederschlag
0.0 mm
Luftdruck
1014.0 hPa
Messzeit: 9. Juli 2020, 17.00Datenquelle: MeteoNews Partner,

Weitere Messstationen in der Nähe

Messstation Temperatur Entfernung
Villars-Tiercelin 27.0 °C 5 km
Oron-la-ville 27.0 °C 10 km
Cugy 29.3 °C 12 km
Lausanne Pully 28.5 °C 15 km
Vevey 26.3 °C 19 km
Mathod 30.1 °C 20 km
Moléson 18.2 °C 20 km

Niederschlag

Niederschlagsmenge
mm
1594224000 18.00 17.00 - 18.00 0.0
1594227600 19.00 18.00 - 19.00 0.0
1594231200 20.00 19.00 - 20.00
1594234800 21.00 20.00 - 21.00 0.0
1594238400 22.00 21.00 - 22.00 0.0
1594242000 23.00 22.00 - 23.00 0.0
1594245600 0.00 23.00 - 0.00 0.0
1594249200 1.00 0.00 - 1.00 0.0
1594252800 2.00 1.00 - 2.00 0.0
1594256400 3.00 2.00 - 3.00 0.0
1594260000 4.00 3.00 - 4.00 0.0
1594263600 5.00 4.00 - 5.00 0.0
1594267200 6.00 5.00 - 6.00 0.0
1594270800 7.00 6.00 - 7.00 0.0
1594274400 8.00 7.00 - 8.00 0.0
1594278000 9.00 8.00 - 9.00 0.0
1594281600 10.00 9.00 - 10.00 0.0
1594285200 11.00 10.00 - 11.00 0.0
1594288800 12.00 11.00 - 12.00 0.0
1594292400 13.00 12.00 - 13.00 0.0
1594296000 14.00 13.00 - 14.00 0.0
1594299600 15.00 14.00 - 15.00 0.0
1594303200 16.00 15.00 - 16.00 0.0
1594306800 17.00 16.00 - 17.00 0.0

Wind

Windrichtung Böen Mittelwind
° km/h km/h
1594224000 18.00 17.00 - 18.00 230° 0 0
1594227600 19.00 18.00 - 19.00
1594231200 20.00 19.00 - 20.00 290° 0 0
1594234800 21.00 20.00 - 21.00
1594238400 22.00 21.00 - 22.00 330° 6 0
1594242000 23.00 22.00 - 23.00 330° 0 0
1594245600 0.00 23.00 - 0.00
1594249200 1.00 0.00 - 1.00
1594252800 2.00 1.00 - 2.00
1594256400 3.00 2.00 - 3.00
1594260000 4.00 3.00 - 4.00
1594263600 5.00 4.00 - 5.00
1594267200 6.00 5.00 - 6.00
1594270800 7.00 6.00 - 7.00
1594274400 8.00 7.00 - 8.00
1594278000 9.00 8.00 - 9.00
1594281600 10.00 9.00 - 10.00 190° 0 0
1594285200 11.00 10.00 - 11.00 190° 0 0
1594288800 12.00 11.00 - 12.00
1594292400 13.00 12.00 - 13.00
1594296000 14.00 13.00 - 14.00
1594299600 15.00 14.00 - 15.00
1594303200 16.00 15.00 - 16.00
1594306800 17.00 16.00 - 17.00

Ihre Wetterstation

Fehlt Ihre Wetterstation auf unserem Portal?

Schreiben Sie an network@meteonews.ch

Klima

Wann ist es am wärmsten? Wann regnet es am wenigsten? Unsere Klimadaten geben Auskunft.